createdAt,value
2022-11-14T00:02:16.642Z,17.00
2022-11-14T00:05:04.811Z,15.87
2022-11-14T00:07:53.572Z,15.43
2022-11-14T00:10:41.343Z,16.00
2022-11-14T00:13:29.127Z,16.40
2022-11-14T00:16:16.766Z,15.73
2022-11-14T00:19:04.632Z,15.97
2022-11-14T00:21:52.697Z,12.77
2022-11-14T00:24:40.174Z,14.40
2022-11-14T00:27:27.930Z,13.97
2022-11-14T00:30:16.307Z,14.53
2022-11-14T00:33:04.153Z,14.23
2022-11-14T00:35:53.712Z,14.90
2022-11-14T00:38:41.749Z,14.57
2022-11-14T00:41:30.053Z,14.10
2022-11-14T00:44:17.724Z,13.57
2022-11-14T00:47:05.706Z,13.77
2022-11-14T00:49:53.746Z,14.87
2022-11-14T00:52:41.196Z,14.07
2022-11-14T00:55:29.320Z,13.87
2022-11-14T00:58:17.415Z,13.87
2022-11-14T01:01:05.631Z,14.07
2022-11-14T01:03:56.030Z,13.97
2022-11-14T01:06:44.011Z,14.70
2022-11-14T01:09:31.661Z,15.23
2022-11-14T01:12:19.538Z,15.10
2022-11-14T01:15:09.671Z,14.93
2022-11-14T01:17:57.905Z,14.77
2022-11-14T01:20:48.504Z,15.20
2022-11-14T01:23:36.525Z,13.63
2022-11-14T01:26:24.977Z,16.80
2022-11-14T01:29:12.418Z,15.03
2022-11-14T01:31:59.829Z,16.17
2022-11-14T01:34:48.761Z,16.45
2022-11-14T01:37:35.982Z,16.43
2022-11-14T01:40:23.257Z,17.30
2022-11-14T01:43:24.506Z,16.47
2022-11-14T01:46:15.868Z,15.70
2022-11-14T01:49:10.360Z,16.93
2022-11-14T01:52:02.352Z,16.40
2022-11-14T01:54:52.990Z,16.93
2022-11-14T01:57:44.106Z,16.57
2022-11-14T02:00:31.855Z,17.20
2022-11-14T02:03:20.112Z,17.13
2022-11-14T02:06:12.795Z,19.90
2022-11-14T02:09:02.891Z,18.13
2022-11-14T02:11:53.658Z,18.20
2022-11-14T02:14:44.753Z,17.83
2022-11-14T02:17:33.515Z,18.80
2022-11-14T02:20:23.903Z,18.60
2022-11-14T02:23:13.546Z,19.43
2022-11-14T02:26:01.107Z,17.17
2022-11-14T02:28:52.055Z,17.07
2022-11-14T02:31:40.165Z,16.17
2022-11-14T02:34:29.051Z,16.47
2022-11-14T02:37:16.968Z,16.53
2022-11-14T02:40:09.829Z,16.03
2022-11-14T02:42:57.159Z,15.27
2022-11-14T02:45:44.961Z,15.73
2022-11-14T02:48:32.532Z,14.93
2022-11-14T02:51:20.783Z,14.27
2022-11-14T02:54:11.371Z,15.33
2022-11-14T02:56:58.934Z,12.87
2022-11-14T02:59:47.657Z,13.95
2022-11-14T03:02:35.355Z,13.33
2022-11-14T03:05:23.033Z,12.70
2022-11-14T03:08:10.568Z,11.43
2022-11-14T03:11:05.144Z,12.07
2022-11-14T03:13:53.048Z,11.35
2022-11-14T03:16:41.293Z,10.67
2022-11-14T03:19:29.049Z,9.87
2022-11-14T03:22:17.919Z,10.37
2022-11-14T03:25:07.403Z,9.67
2022-11-14T03:27:55.397Z,8.70
2022-11-14T03:30:43.440Z,10.20
2022-11-14T03:33:34.555Z,9.30
2022-11-14T03:36:22.274Z,8.60
2022-11-14T03:39:09.668Z,9.13
2022-11-14T03:41:57.354Z,9.30
2022-11-14T03:44:45.227Z,8.33
2022-11-14T03:47:32.873Z,7.77
2022-11-14T03:50:20.878Z,9.85
2022-11-14T03:53:08.880Z,8.53
2022-11-14T03:55:56.974Z,9.35
2022-11-14T03:58:45.816Z,8.60
2022-11-14T04:01:33.398Z,8.90
2022-11-14T04:04:21.268Z,7.50
2022-11-14T04:07:09.510Z,8.53
2022-11-14T04:09:57.196Z,8.10
2022-11-14T04:12:50.842Z,8.03
2022-11-14T04:15:38.589Z,7.40
2022-11-14T04:18:27.471Z,8.13
2022-11-14T04:21:17.811Z,8.40
2022-11-14T04:24:10.876Z,8.10
2022-11-14T04:26:59.051Z,7.63
2022-11-14T04:29:49.820Z,7.37
2022-11-14T04:32:38.196Z,6.00
2022-11-14T04:35:25.599Z,6.47
2022-11-14T04:38:13.453Z,6.33
2022-11-14T04:41:01.239Z,6.43
2022-11-14T04:43:51.108Z,5.83
2022-11-14T04:46:44.553Z,5.57
2022-11-14T04:49:32.433Z,5.87
2022-11-14T04:52:26.950Z,6.03
2022-11-14T04:55:14.914Z,6.60
2022-11-14T04:58:02.655Z,6.93
2022-11-14T05:00:50.605Z,8.13
2022-11-14T05:03:40.415Z,7.63
2022-11-14T05:06:28.146Z,7.20
2022-11-14T05:09:16.394Z,8.27
2022-11-14T05:12:10.282Z,10.90
2022-11-14T05:14:57.823Z,13.70
2022-11-14T05:17:45.891Z,11.90
2022-11-14T05:20:37.478Z,9.67
2022-11-14T05:23:25.647Z,8.83
2022-11-14T05:26:26.858Z,9.28
2022-11-14T05:29:14.436Z,7.97
2022-11-14T05:32:01.773Z,8.17
2022-11-14T05:34:51.011Z,7.87
2022-11-14T05:37:38.599Z,8.03
2022-11-14T05:40:33.000Z,6.90
2022-11-14T05:43:20.737Z,7.50
2022-11-14T05:46:11.513Z,7.80
2022-11-14T05:49:05.277Z,7.20
2022-11-14T05:51:52.968Z,6.93
2022-11-14T05:54:40.804Z,7.65
2022-11-14T05:57:30.504Z,8.07
2022-11-14T06:00:19.064Z,6.90
2022-11-14T06:03:06.933Z,8.27
2022-11-14T06:05:55.531Z,8.73
2022-11-14T06:08:46.053Z,9.10
2022-11-14T06:11:36.748Z,8.53
2022-11-14T06:14:29.491Z,8.67
2022-11-14T06:17:19.518Z,9.67
2022-11-14T06:20:10.618Z,8.93
2022-11-14T06:22:58.291Z,9.77
2022-11-14T06:25:52.960Z,9.40
2022-11-14T06:28:40.416Z,9.37
2022-11-14T06:31:38.096Z,9.13
2022-11-14T06:34:29.037Z,9.23
2022-11-14T06:37:16.539Z,8.47
2022-11-14T06:40:10.854Z,9.07
2022-11-14T06:42:58.492Z,7.20
2022-11-14T06:45:45.884Z,7.40
2022-11-14T06:48:36.250Z,7.10
2022-11-14T06:51:23.834Z,7.37
2022-11-14T06:54:12.594Z,7.77
2022-11-14T06:57:00.317Z,8.80
2022-11-14T06:59:49.544Z,7.23
2022-11-14T07:02:37.221Z,7.55
2022-11-14T07:05:24.577Z,7.80
2022-11-14T07:08:13.343Z,7.33
2022-11-14T07:11:04.193Z,6.37
2022-11-14T07:13:52.609Z,6.23
2022-11-14T07:16:39.919Z,5.97
2022-11-14T07:19:27.281Z,6.43
2022-11-14T07:22:18.791Z,6.20
2022-11-14T07:25:07.971Z,5.73
2022-11-14T07:27:59.618Z,5.90
2022-11-14T07:30:48.556Z,5.83
2022-11-14T07:33:36.632Z,6.27
2022-11-14T07:36:24.571Z,6.27
2022-11-14T07:39:13.164Z,6.50
2022-11-14T07:42:00.920Z,6.13
2022-11-14T07:44:49.599Z,6.77
2022-11-14T07:47:37.310Z,7.40
2022-11-14T07:50:25.003Z,6.37
2022-11-14T07:53:14.899Z,6.80
2022-11-14T07:56:05.704Z,6.73
2022-11-14T07:58:53.633Z,6.20
2022-11-14T08:01:41.172Z,6.87
2022-11-14T08:04:28.722Z,7.50
2022-11-14T08:07:19.295Z,6.30
2022-11-14T08:10:10.844Z,5.77
2022-11-14T08:16:14.254Z,6.08
2022-11-14T08:19:03.155Z,5.70
2022-11-14T08:21:57.773Z,5.30
2022-11-14T08:24:48.334Z,5.40
2022-11-14T08:27:36.038Z,5.57
2022-11-14T08:30:27.590Z,5.03
2022-11-14T08:33:21.609Z,5.03
2022-11-14T08:36:12.020Z,5.10
2022-11-14T08:39:08.478Z,5.60
2022-11-14T08:41:56.222Z,5.60
2022-11-14T08:44:51.694Z,5.03
2022-11-14T08:47:42.087Z,4.93
2022-11-14T08:50:32.099Z,4.87
2022-11-14T08:53:20.381Z,5.17
2022-11-14T08:56:11.484Z,4.87
2022-11-14T08:58:59.555Z,5.23
2022-11-14T09:01:50.817Z,5.47
2022-11-14T09:04:50.774Z,5.93
2022-11-14T09:07:40.359Z,6.37
2022-11-14T09:10:27.864Z,6.03
2022-11-14T09:13:18.174Z,6.20
2022-11-14T09:16:08.759Z,5.43
2022-11-14T09:19:03.695Z,5.80
2022-11-14T09:21:51.157Z,5.60
2022-11-14T09:24:38.509Z,6.00
2022-11-14T09:27:28.881Z,5.67
2022-11-14T09:30:17.086Z,5.20
2022-11-14T09:33:11.491Z,5.60
2022-11-14T09:36:02.111Z,5.33
2022-11-14T09:38:59.798Z,5.70
2022-11-14T09:42:15.757Z,5.55
2022-11-14T09:45:10.712Z,5.30
2022-11-14T09:48:06.846Z,5.63
2022-11-14T09:51:07.941Z,6.00
2022-11-14T09:54:05.286Z,6.40
2022-11-14T09:56:55.397Z,7.70
2022-11-14T09:59:48.909Z,10.77
2022-11-14T10:02:51.760Z,9.87
2022-11-14T10:06:10.666Z,10.03
2022-11-14T10:09:30.241Z,9.60
2022-11-14T10:12:40.490Z,8.40
2022-11-14T10:15:35.564Z,7.63
2022-11-14T10:18:41.644Z,7.67
2022-11-14T10:21:44.389Z,7.50
2022-11-14T10:24:57.184Z,7.77
2022-11-14T10:28:05.030Z,8.37
2022-11-14T10:31:37.056Z,7.73
2022-11-14T10:34:30.548Z,7.90
2022-11-14T10:37:27.797Z,8.67
2022-11-14T10:40:22.119Z,9.30
2022-11-14T10:43:30.959Z,8.97
2022-11-14T10:46:22.715Z,10.17
2022-11-14T10:49:19.406Z,9.50
2022-11-14T10:52:13.809Z,9.47
2022-11-14T10:55:13.338Z,9.50
2022-11-14T10:58:11.798Z,9.65
2022-11-14T11:01:40.228Z,8.73
2022-11-14T11:04:29.414Z,6.27
2022-11-14T11:07:48.248Z,5.90
2022-11-14T11:10:58.387Z,5.67
2022-11-14T11:13:56.517Z,5.47
2022-11-14T11:16:51.459Z,4.80
2022-11-14T11:19:40.051Z,4.37
2022-11-14T11:22:37.378Z,4.80
2022-11-14T11:25:28.442Z,4.53
2022-11-14T11:28:22.566Z,3.73
2022-11-14T11:31:11.640Z,4.03
2022-11-14T11:34:08.132Z,4.40
2022-11-14T11:37:06.728Z,4.00
2022-11-14T11:40:00.433Z,4.83
2022-11-14T11:43:37.348Z,5.23
2022-11-14T11:46:18.252Z,5.13
2022-11-14T11:49:15.795Z,5.93
2022-11-14T11:52:10.461Z,5.73
2022-11-14T11:55:05.565Z,5.80
2022-11-14T11:58:02.618Z,5.90
2022-11-14T12:00:55.023Z,6.20
2022-11-14T12:03:48.452Z,7.10
2022-11-14T12:06:44.195Z,8.37
2022-11-14T12:10:08.816Z,11.43
2022-11-14T12:13:09.230Z,12.93
2022-11-14T12:16:13.762Z,15.73
2022-11-14T12:19:36.001Z,18.63
2022-11-14T12:22:53.409Z,19.53
2022-11-14T12:26:17.520Z,20.60
2022-11-14T12:29:51.299Z,20.30
2022-11-14T12:32:44.160Z,19.17
2022-11-14T12:35:37.400Z,16.90
2022-11-14T12:38:27.066Z,14.03
2022-11-14T12:41:35.449Z,12.93
2022-11-14T12:44:35.422Z,12.30
2022-11-14T12:47:25.374Z,11.53
2022-11-14T12:50:41.797Z,12.23
2022-11-14T12:53:41.570Z,12.53
2022-11-14T12:57:01.212Z,13.20
2022-11-14T12:59:59.160Z,14.83
2022-11-14T13:03:19.511Z,13.10
2022-11-14T13:09:28.925Z,14.63
2022-11-14T13:12:52.162Z,16.80
2022-11-14T13:16:12.266Z,17.13
2022-11-14T13:19:38.914Z,17.42
2022-11-14T13:22:41.433Z,16.57
2022-11-14T13:25:29.215Z,19.23
2022-11-14T13:28:50.888Z,18.03
2022-11-14T13:31:49.492Z,14.70
2022-11-14T13:34:52.886Z,16.47
2022-11-14T13:38:20.958Z,15.67
2022-11-14T13:41:47.978Z,15.57
2022-11-14T13:45:25.322Z,15.87
2022-11-14T13:48:56.025Z,15.93
2022-11-14T13:51:45.745Z,14.53
2022-11-14T13:54:33.839Z,13.87
2022-11-14T13:57:33.173Z,13.07
2022-11-14T14:00:21.423Z,14.13
2022-11-14T14:03:22.021Z,13.67
2022-11-14T14:06:33.450Z,12.63
2022-11-14T14:09:30.060Z,12.67
2022-11-14T14:12:41.448Z,14.00
2022-11-14T14:15:40.284Z,14.37
2022-11-14T14:18:48.436Z,12.00
2022-11-14T14:21:45.458Z,16.50
2022-11-14T14:24:50.641Z,16.60
2022-11-14T14:27:53.999Z,16.90
2022-11-14T14:31:03.740Z,16.30
2022-11-14T14:33:54.330Z,14.17
2022-11-14T14:36:51.907Z,14.60
2022-11-14T14:39:58.696Z,16.07
2022-11-14T14:42:50.176Z,14.77
2022-11-14T14:45:53.271Z,15.75
2022-11-14T14:48:46.883Z,13.93
2022-11-14T14:51:44.136Z,14.75
2022-11-14T14:54:31.829Z,13.60
2022-11-14T14:57:23.503Z,13.93
2022-11-14T15:00:20.543Z,14.10
2022-11-14T15:03:14.982Z,12.13
2022-11-14T15:06:04.877Z,13.10
2022-11-14T15:08:59.497Z,13.47
2022-11-14T15:11:56.546Z,12.53
2022-11-14T15:14:52.676Z,12.13
2022-11-14T15:17:42.991Z,15.23
2022-11-14T15:20:34.413Z,11.97
2022-11-14T15:23:22.407Z,12.50
2022-11-14T15:26:19.402Z,12.73
2022-11-14T15:29:16.630Z,11.47
2022-11-14T15:32:05.425Z,11.33
2022-11-14T15:35:08.972Z,12.57
2022-11-14T15:38:42.542Z,12.60
2022-11-14T15:41:22.535Z,13.67
2022-11-14T15:44:30.817Z,13.90
2022-11-14T15:47:24.114Z,13.70
2022-11-14T15:50:32.164Z,13.57
2022-11-14T15:53:23.892Z,13.10
2022-11-14T15:56:17.369Z,14.17
2022-11-14T15:59:11.641Z,15.70
2022-11-14T16:02:03.988Z,14.73
2022-11-14T16:04:54.782Z,14.07
2022-11-14T16:07:44.538Z,14.95
2022-11-14T16:10:35.567Z,14.77
2022-11-14T16:13:22.885Z,13.93
2022-11-14T16:16:11.520Z,14.93
2022-11-14T16:19:07.384Z,13.43
2022-11-14T16:21:58.856Z,14.50
2022-11-14T16:24:46.306Z,15.63
2022-11-14T16:27:34.529Z,14.70
2022-11-14T16:30:24.968Z,15.17
2022-11-14T16:33:15.063Z,12.60
2022-11-14T16:36:06.945Z,13.47
2022-11-14T16:38:59.949Z,14.17
2022-11-14T16:41:49.289Z,13.77
2022-11-14T16:44:42.021Z,12.97
2022-11-14T16:47:32.663Z,14.30
2022-11-14T16:50:20.424Z,11.57
2022-11-14T16:53:08.031Z,13.17
2022-11-14T16:55:56.608Z,13.10
2022-11-14T16:58:45.989Z,12.57
2022-11-14T17:01:38.766Z,14.33
2022-11-14T17:04:26.915Z,12.97
2022-11-14T17:07:22.741Z,13.97
2022-11-14T17:10:12.102Z,13.80
2022-11-14T17:13:00.281Z,13.90
2022-11-14T17:15:51.565Z,13.63
2022-11-14T17:18:39.299Z,15.13
2022-11-14T17:21:30.241Z,16.33
2022-11-14T17:24:18.339Z,16.97
2022-11-14T17:27:05.989Z,17.00
2022-11-14T17:30:00.793Z,15.33
2022-11-14T17:32:56.273Z,14.17
2022-11-14T17:35:44.547Z,14.60
2022-11-14T17:38:33.848Z,14.87
2022-11-14T17:41:21.596Z,14.73
2022-11-14T17:44:09.468Z,14.80
2022-11-14T17:46:57.202Z,13.67
2022-11-14T17:49:52.164Z,13.50
2022-11-14T17:52:41.303Z,13.40
2022-11-14T17:55:29.035Z,14.00
2022-11-14T17:58:18.123Z,13.63
2022-11-14T18:01:11.701Z,14.83
2022-11-14T18:04:06.785Z,14.23
2022-11-14T18:06:55.128Z,14.67
2022-11-14T18:09:48.310Z,13.73
2022-11-14T18:12:36.216Z,15.00
2022-11-14T18:15:27.786Z,13.27
2022-11-14T18:18:19.899Z,14.70
2022-11-14T18:21:09.452Z,12.97
2022-11-14T18:23:59.479Z,12.87
2022-11-14T18:26:51.345Z,12.37
2022-11-14T18:29:41.489Z,13.67
2022-11-14T18:32:29.610Z,13.87
2022-11-14T18:35:18.945Z,12.40
2022-11-14T18:38:06.813Z,13.03
2022-11-14T18:40:57.384Z,14.13
2022-11-14T18:43:47.348Z,13.60
2022-11-14T18:46:43.116Z,12.20
2022-11-14T18:49:33.614Z,12.80
2022-11-14T18:52:24.712Z,13.90
2022-11-14T18:55:18.577Z,13.03
2022-11-14T18:58:06.212Z,13.80
2022-11-14T19:00:59.328Z,12.60
2022-11-14T19:03:46.915Z,14.03
2022-11-14T19:06:36.505Z,14.17
2022-11-14T19:09:35.301Z,13.67
2022-11-14T19:12:24.536Z,12.80
2022-11-14T19:15:12.143Z,14.40
2022-11-14T19:18:02.409Z,14.03
2022-11-14T19:21:00.974Z,13.83
2022-11-14T19:23:54.185Z,15.47
2022-11-14T19:26:44.915Z,14.47
2022-11-14T19:29:32.694Z,16.33
2022-11-14T19:32:20.789Z,15.67
2022-11-14T19:35:09.970Z,13.37
2022-11-14T19:37:57.210Z,12.77
2022-11-14T19:40:50.859Z,15.13
2022-11-14T19:43:38.659Z,13.80
2022-11-14T19:49:26.524Z,15.50
2022-11-14T19:52:22.010Z,13.87
2022-11-14T19:55:09.990Z,15.07
2022-11-14T19:57:59.964Z,12.60
2022-11-14T20:00:50.584Z,12.90
2022-11-14T20:03:40.613Z,13.87
2022-11-14T20:06:36.489Z,14.80
2022-11-14T20:09:24.219Z,14.40
2022-11-14T20:12:15.024Z,14.70
2022-11-14T20:15:02.863Z,14.60
2022-11-14T20:17:51.217Z,14.63
2022-11-14T20:20:38.359Z,14.47
2022-11-14T20:23:26.831Z,17.27
2022-11-14T20:26:18.560Z,15.43
2022-11-14T20:29:06.612Z,14.87
2022-11-14T20:31:54.547Z,13.70
2022-11-14T20:34:49.627Z,14.90
2022-11-14T20:37:37.295Z,15.97
2022-11-14T20:40:24.929Z,13.90
2022-11-14T20:43:12.544Z,13.50
2022-11-14T20:46:02.291Z,13.50
2022-11-14T20:48:52.010Z,14.10
2022-11-14T20:51:42.282Z,13.37
2022-11-14T20:54:29.465Z,14.73
2022-11-14T20:57:16.992Z,15.30
2022-11-14T21:00:08.616Z,15.20
2022-11-14T21:03:01.141Z,15.40
2022-11-14T21:05:57.156Z,15.70
2022-11-14T21:08:59.256Z,14.20
2022-11-14T21:14:46.759Z,15.10
2022-11-14T21:17:34.434Z,15.03
2022-11-14T21:20:26.333Z,15.27
2022-11-14T21:23:14.053Z,16.33
2022-11-14T21:26:04.236Z,14.73
2022-11-14T21:29:00.575Z,15.17
2022-11-14T21:31:52.728Z,15.77
2022-11-14T21:34:58.821Z,16.07
2022-11-14T21:37:45.890Z,16.20
2022-11-14T21:40:33.405Z,15.13
2022-11-14T21:43:27.178Z,15.87
2022-11-14T21:46:17.301Z,17.17
2022-11-14T21:49:04.654Z,17.47
2022-11-14T21:52:01.574Z,17.10
2022-11-14T21:54:50.335Z,16.00
2022-11-14T21:57:38.279Z,17.87
2022-11-14T22:00:27.645Z,17.93
2022-11-14T22:03:35.894Z,17.57
2022-11-14T22:06:23.710Z,17.20
2022-11-14T22:09:11.601Z,18.27
2022-11-14T22:12:01.515Z,19.27
2022-11-14T22:14:52.718Z,17.03
2022-11-14T22:17:42.662Z,18.47
2022-11-14T22:20:35.640Z,15.93
2022-11-14T22:23:23.141Z,16.43
2022-11-14T22:26:17.474Z,15.30
2022-11-14T22:29:08.590Z,16.53
2022-11-14T22:31:57.073Z,15.43
2022-11-14T22:34:49.762Z,14.10
2022-11-14T22:37:37.386Z,14.90
2022-11-14T22:40:24.805Z,15.60
2022-11-14T22:43:12.385Z,16.53
2022-11-14T22:46:03.475Z,16.57
2022-11-14T22:48:52.349Z,16.40
2022-11-14T22:51:43.710Z,15.43
2022-11-14T22:54:31.687Z,14.97
2022-11-14T22:57:22.756Z,14.53
2022-11-14T23:00:15.014Z,15.30
2022-11-14T23:03:09.048Z,15.90
2022-11-14T23:05:57.385Z,15.93
2022-11-14T23:08:55.010Z,15.43
2022-11-14T23:11:42.622Z,15.97
2022-11-14T23:14:30.056Z,15.37
2022-11-14T23:17:19.691Z,14.60
2022-11-14T23:20:18.542Z,18.10
2022-11-14T23:23:07.682Z,18.30
2022-11-14T23:26:03.411Z,19.43
2022-11-14T23:28:55.467Z,19.53
2022-11-14T23:31:43.082Z,19.17
2022-11-14T23:34:32.516Z,20.17
2022-11-14T23:37:20.287Z,20.47
2022-11-14T23:40:10.918Z,22.53
2022-11-14T23:43:04.683Z,22.35
2022-11-14T23:45:52.383Z,23.93
2022-11-14T23:48:42.380Z,26.57
2022-11-14T23:51:33.536Z,27.10
2022-11-14T23:54:20.796Z,26.13
2022-11-14T23:57:09.404Z,27.00
2022-11-14T23:59:57.303Z,28.80
